Airfield :
LOGIN :

Register | Disclaimer

   EN    FR    IT 

 










Legend :    VFR   Marginal VFR   IFR   Intensive IFR   Very Intensive IFR
Visi :
Ceiling :
>= 8 km
>= 3000ft
5 to 8 km
1000 to 3000 ft
1500m to 5 km
500 to 1000 ft
800 to 1500m
200 to 500 ft
< 800m
< 200 ft
Symbols :   Thunderstorms  Fog  Heavy snow  Heavy precipitations  Wind > 20 kt
SIGMETs :     Misc.  Thunderstorms  Icing  Turbulence  Mountain Waves  Volcanic Ashes






- Airport Elevation : 13 ft
- IATA code : OST


EBOS - Oostend bruges Int.

CURRENT METAR :
  • 140550Z 06004KT CAVOK 12/11 Q1011 TEMPO 4000 RA SCT009 BKN012

EXPIRED METARs :
  • 140520Z 08003KT CAVOK 11/10 Q1012 TEMPO 4000 RA SCT009 BKN012
  • 140450Z 10002KT CAVOK 11/11 Q1012 NOSIG
  • 140420Z VRB01KT CAVOK 11/11 Q1012 NOSIG
  • 140350Z VRB02KT CAVOK 11/10 Q1013 NOSIG
  • 140320Z 12003KT CAVOK 11/11 Q1012 NOSIG

TAF TAF EBOS
Valid from the 14 at 06:00 until the 15 at 12:00 UTC


140510Z 1406/1512 10008KT 9999 SCT020
PROB30
TEMPO 1406/1410 4000 RA SHRA SCT009 BKN012
BECMG 1412/1414 18011KT
TEMPO 1415/1423 3000 SHRA
PROB30
TEMPO 1504/1512 4000 SHRA



MET'MAP, your aeronautical weather chart ! - Copyright ORBIFLY December 2007 - Disclaimer

ORBIFLY MET'MAP TEAM :

Programming & Development : Alexandra Zaïnal
Concept & Development : Baudouin d'Aumeries
Co-Development & Prog : Marc-Olivier Méhu
Technical & hardware support : Manuel Goepfert

Contact : metmap@orbifly.com




SOURCES & CREDITS :

   NOAA